Time;durP1;ratioP1;P1;durP2;ratioP2;P2;SDS_P1;SDS_P2;PMS_P1;PMS_P2;Temp;Humidity;BMP_temperature;BMP_pressure;BME280_temperature;BME280_humidity;BME280_pressure;Samples;Min_cycle;Max_cycle;Signal;HPM_P1;HPM_P2
2022/01/26 00:07:41;;;;;;;27.40;16.77;;;7.20;95.40;;;;;;5034829;28;20435;-66
2022/01/26 00:10:07;;;;;;;29.40;19.30;;;7.30;95.40;;;;;;4998818;28;20463;-66
2022/01/26 00:12:33;;;;;;;28.93;21.50;;;7.20;95.40;;;;;;5017810;28;20793;-66
2022/01/26 00:14:59;;;;;;;29.77;18.33;;;7.20;95.40;;;;;;5022964;28;20454;-66
2022/01/26 00:17:24;;;;;;;31.27;20.47;;;7.30;95.30;;;;;;5035600;28;20401;-66
2022/01/26 00:25:23;;;;;;;29.50;20.70;;;7.20;95.30;;;;;;5052608;28;20468;-66
2022/01/26 00:27:57;;;;;;;31.13;20.83;;;7.20;95.20;;;;;;5052785;28;20493;-73
2022/01/26 00:38:41;;;;;;;31.27;19.67;;;7.10;95.80;;;;;;4982216;28;20460;-66
2022/01/26 00:41:12;;;;;;;35.37;21.33;;;7.10;95.60;;;;;;5039361;28;20446;-66
2022/01/26 00:43:43;;;;;;;36.67;21.27;;;7.10;95.70;;;;;;5033333;28;20506;-65
2022/01/26 00:46:08;;;;;;;30.03;19.97;;;7.10;96.20;;;;;;5032251;28;20506;-66
2022/01/26 00:48:37;;;;;;;34.70;20.17;;;7.10;95.70;;;;;;5033145;28;20570;-66
2022/01/26 00:51:05;;;;;;;33.37;19.10;;;7.10;95.80;;;;;;5031979;28;20534;-66
2022/01/26 00:53:35;;;;;;;34.30;20.43;;;7.10;95.80;;;;;;5046110;28;20419;-66
2022/01/26 00:56:03;;;;;;;36.07;21.87;;;7.10;95.90;;;;;;5019931;28;20439;-65
2022/01/26 00:58:29;;;;;;;33.90;22.23;;;7.10;95.90;;;;;;5015612;28;20444;-65
2022/01/26 01:00:57;;;;;;;33.80;20.43;;;7.10;95.90;;;;;;5032053;28;20416;-66
2022/01/26 01:03:23;;;;;;;34.57;22.63;;;7.10;95.90;;;;;;5044461;28;20613;-65
2022/01/26 01:08:20;;;;;;;32.50;22.43;;;7.20;95.80;;;;;;5051856;28;20536;-66
2022/01/26 01:10:48;;;;;;;36.23;22.87;;;7.30;95.90;;;;;;5050890;28;20179;-65
2022/01/26 01:13:18;;;;;;;33.13;20.10;;;7.20;95.80;;;;;;5050225;28;20963;-66
2022/01/26 01:15:45;;;;;;;40.20;24.50;;;7.20;95.90;;;;;;5052281;28;20415;-66
2022/01/26 01:29:24;;;;;;;44.20;24.93;;;7.20;95.90;;;;;;5013896;28;20522;-66
2022/01/26 01:31:54;;;;;;;44.90;24.07;;;7.30;96.20;;;;;;5032414;28;20468;-66
2022/01/26 01:34:37;;;;;;;41.10;23.80;;;7.20;96.10;;;;;;5051269;28;20432;-65
2022/01/26 01:37:06;;;;;;;36.93;23.47;;;7.10;96.10;;;;;;5033754;28;20426;-66
2022/01/26 01:39:33;;;;;;;38.50;22.87;;;7.20;96.10;;;;;;5013982;28;20445;-66
2022/01/26 01:42:00;;;;;;;37.93;23.63;;;7.20;96.00;;;;;;5031317;28;20494;-70
2022/01/26 01:44:26;;;;;;;36.33;21.90;;;7.30;96.10;;;;;;5047027;28;20432;-65
2022/01/26 01:46:54;;;;;;;35.47;23.30;;;7.30;96.20;;;;;;5051978;28;20420;-72
2022/01/26 01:49:21;;;;;;;40.80;22.30;;;7.30;96.00;;;;;;5051445;28;20440;-66
2022/01/26 01:52:10;;;;;;;39.70;23.07;;;7.30;96.10;;;;;;5016721;28;20419;-66
2022/01/26 01:54:38;;;;;;;40.30;23.30;;;7.30;96.10;;;;;;5014055;28;20423;-66
2022/01/26 01:57:04;;;;;;;41.90;23.53;;;7.30;95.90;;;;;;5031107;28;20756;-66
2022/01/26 01:59:32;;;;;;;37.30;22.40;;;7.30;96.00;;;;;;5035869;28;20420;-66
2022/01/26 02:01:59;;;;;;;37.23;23.17;;;7.30;96.20;;;;;;5035685;28;20424;-69
2022/01/26 02:04:25;;;;;;;43.33;24.27;;;7.30;96.30;;;;;;5021052;28;20930;-66
2022/01/26 02:06:50;;;;;;;47.70;24.33;;;6.90;95.80;;;;;;5037912;28;20525;-66
2022/01/26 02:09:16;;;;;;;43.70;23.87;;;7.30;96.20;;;;;;5055147;28;20201;-66
2022/01/26 02:11:49;;;;;;;48.93;24.40;;;7.30;96.20;;;;;;5038218;28;20272;-66
2022/01/26 02:14:30;;;;;;;43.70;24.73;;;7.30;96.60;;;;;;5054559;28;20203;-66
2022/01/26 02:17:12;;;;;;;45.67;24.30;;;7.20;96.60;;;;;;5045430;28;20480;-72
2022/01/26 02:19:56;;;;;;;40.93;23.47;;;7.30;96.40;;;;;;5036248;28;20819;-65
2022/01/26 02:50:43;;;;;;;44.83;23.87;;;7.20;96.30;;;;;;5020668;28;21244;-66
2022/01/26 02:56:00;;;;;;;47.27;24.90;;;7.20;96.30;;;;;;5054069;28;20393;-66
2022/01/26 03:03:43;;;;;;;49.23;26.50;;;7.10;95.80;;;;;;5072941;28;20464;-66
2022/01/26 03:06:14;;;;;;;45.23;26.43;;;7.10;96.00;;;;;;5074450;28;20451;-66
2022/01/26 03:08:50;;;;;;;50.23;25.33;;;7.10;96.40;;;;;;5074442;28;20551;-66
2022/01/26 03:11:17;;;;;;;44.00;26.87;;;7.20;97.00;;;;;;5072951;28;20413;-66
2022/01/26 03:13:49;;;;;;;44.90;26.07;;;7.10;96.30;;;;;;5067657;28;20516;-66
2022/01/26 03:16:30;;;;;;;44.63;24.83;;;7.00;96.30;;;;;;5054272;28;20417;-66
2022/01/26 03:19:02;;;;;;;44.87;24.90;;;6.80;96.20;;;;;;5074817;28;20398;-66
2022/01/26 03:21:45;;;;;;;46.63;25.87;;;6.70;96.10;;;;;;5065111;28;20458;-66
2022/01/26 03:34:58;;;;;;;45.80;23.97;;;7.10;95.50;;;;;;5017308;28;20518;-66
2022/01/26 03:37:31;;;;;;;50.87;26.50;;;7.00;95.50;;;;;;4999588;28;20526;-65
2022/01/26 03:39:57;;;;;;;43.93;24.63;;;7.00;95.60;;;;;;5025180;28;20436;-67
2022/01/26 03:42:22;;;;;;;43.57;24.30;;;7.00;95.70;;;;;;5036793;28;20462;-66
2022/01/26 03:44:48;;;;;;;43.33;24.37;;;7.00;95.60;;;;;;5033998;28;20258;-66
2022/01/26 03:47:14;;;;;;;45.53;24.47;;;6.90;95.50;;;;;;5033215;28;20229;-66
2022/01/26 03:49:41;;;;;;;51.70;26.03;;;6.90;95.50;;;;;;5045343;28;20797;-66
2022/01/26 03:52:08;;;;;;;46.87;25.97;;;7.00;95.60;;;;;;5053294;28;20458;-66
2022/01/26 03:54:33;;;;;;;41.67;24.47;;;7.00;95.90;;;;;;5053061;28;20470;-66
2022/01/26 03:56:59;;;;;;;51.70;25.90;;;7.00;95.80;;;;;;5053969;28;20473;-66
2022/01/26 03:59:25;;;;;;;50.50;26.87;;;7.10;95.90;;;;;;5002841;28;20230;-66
2022/01/26 04:01:51;;;;;;;46.70;24.87;;;7.10;95.70;;;;;;5054208;28;20385;-65
2022/01/26 04:04:17;;;;;;;45.77;24.90;;;7.00;95.50;;;;;;5041988;28;20176;-66
2022/01/26 04:06:43;;;;;;;49.33;27.70;;;7.00;95.20;;;;;;5033470;28;20419;-66
2022/01/26 04:09:10;;;;;;;51.10;26.43;;;6.90;95.50;;;;;;5033042;28;20439;-66
2022/01/26 04:11:41;;;;;;;45.40;25.27;;;7.00;95.40;;;;;;5033770;28;20187;-66
2022/01/26 04:14:10;;;;;;;49.17;25.47;;;7.00;95.60;;;;;;5015230;28;20467;-66
2022/01/26 04:16:39;;;;;;;44.23;25.77;;;6.90;95.50;;;;;;4999619;28;21005;-66
2022/01/26 04:19:06;;;;;;;44.97;25.37;;;7.00;95.40;;;;;;4998646;28;21030;-71
2022/01/26 04:26:54;;;;;;;47.77;25.17;;;6.90;95.50;;;;;;5033530;28;20402;-66
2022/01/26 04:29:27;;;;;;;47.80;24.37;;;6.60;95.40;;;;;;5015096;28;20451;-66
2022/01/26 04:31:53;;;;;;;55.30;27.47;;;6.60;95.60;;;;;;5033476;28;20683;-66
2022/01/26 04:34:20;;;;;;;43.43;25.10;;;6.50;95.60;;;;;;5032811;28;20509;-66
2022/01/26 04:39:20;;;;;;;49.07;27.93;;;6.90;95.50;;;;;;5032437;28;20457;-66
2022/01/26 04:44:22;;;;;;;50.10;27.30;;;6.80;95.30;;;;;;5046651;28;20405;-66
2022/01/26 04:46:49;;;;;;;48.60;27.50;;;6.80;95.40;;;;;;5025191;28;20537;-66
2022/01/26 04:49:15;;;;;;;51.60;27.33;;;6.90;95.50;;;;;;5017870;28;20428;-66
2022/01/26 04:51:41;;;;;;;56.23;30.23;;;6.80;95.60;;;;;;5052616;28;20475;-66
2022/01/26 04:54:07;;;;;;;48.47;28.70;;;6.80;95.70;;;;;;5043878;28;20244;-73
2022/01/26 04:56:33;;;;;;;51.33;28.03;;;6.80;95.60;;;;;;5032887;28;20908;-66
2022/01/26 04:58:59;;;;;;;54.37;28.00;;;6.40;95.60;;;;;;5032651;28;20583;-66
2022/01/26 05:01:24;;;;;;;52.53;26.93;;;6.70;95.80;;;;;;5013963;28;20254;-66
2022/01/26 05:03:50;;;;;;;53.97;27.53;;;6.70;96.00;;;;;;5033045;28;20568;-66
2022/01/26 05:06:18;;;;;;;50.40;28.67;;;6.80;95.90;;;;;;5032012;28;20187;-66
2022/01/26 05:08:44;;;;;;;58.57;28.33;;;6.70;95.90;;;;;;5048566;28;20230;-66
2022/01/26 05:11:14;;;;;;;49.63;27.90;;;6.70;96.00;;;;;;5017330;28;20847;-67
2022/01/26 05:13:40;;;;;;;47.70;26.27;;;6.60;96.00;;;;;;5043606;28;20176;-66
2022/01/26 05:16:06;;;;;;;53.53;29.60;;;6.50;95.70;;;;;;5032233;28;20912;-71
2022/01/26 05:18:33;;;;;;;52.53;30.00;;;6.70;95.70;;;;;;5032169;28;20184;-66
2022/01/26 05:20:59;;;;;;;57.40;30.20;;;6.70;95.70;;;;;;5022663;28;20458;-66
2022/01/26 05:23:24;;;;;;;57.20;30.70;;;6.70;95.50;;;;;;5050315;28;20540;-66
2022/01/26 05:25:50;;;;;;;59.33;31.27;;;6.70;95.40;;;;;;5066770;28;20184;-66
2022/01/26 05:28:16;;;;;;;60.83;33.10;;;6.60;95.50;;;;;;5069640;28;20538;-66
2022/01/26 05:30:42;;;;;;;61.20;31.60;;;6.40;95.60;;;;;;5071092;28;20403;-66
2022/01/26 05:33:07;;;;;;;63.63;34.07;;;6.70;95.90;;;;;;5070495;28;20211;-75
2022/01/26 05:35:33;;;;;;;72.90;35.77;;;6.70;95.80;;;;;;5054119;28;20194;-66
2022/01/26 05:37:59;;;;;;;71.90;35.73;;;6.70;96.10;;;;;;5051482;28;20966;-67
2022/01/26 05:40:26;;;;;;;86.53;38.73;;;6.60;96.20;;;;;;5055194;28;20181;-67
2022/01/26 05:42:51;;;;;;;75.67;36.73;;;6.60;97.00;;;;;;5068545;28;20404;-65
2022/01/26 05:45:32;;;;;;;77.90;34.93;;;6.60;96.60;;;;;;5059412;28;20905;-65
2022/01/26 05:48:01;;;;;;;80.27;37.97;;;6.60;96.40;;;;;;5058081;28;20385;-64
2022/01/26 05:50:27;;;;;;;80.30;38.87;;;6.80;96.50;;;;;;5058004;28;20915;-64
2022/01/26 05:52:53;;;;;;;79.17;35.83;;;6.70;96.50;;;;;;5071866;28;20428;-64
2022/01/26 05:55:19;;;;;;;76.70;35.90;;;6.70;96.30;;;;;;5055687;28;20587;-65
2022/01/26 05:57:44;;;;;;;82.10;35.60;;;6.50;96.10;;;;;;5070896;28;20208;-64
2022/01/26 06:00:11;;;;;;;73.67;35.27;;;6.80;96.30;;;;;;5053468;28;20174;-70
2022/01/26 06:02:37;;;;;;;71.70;37.47;;;6.50;96.00;;;;;;5072024;28;20267;-64
2022/01/26 06:05:04;;;;;;;88.53;40.43;;;6.80;96.20;;;;;;5070575;28;20409;-64
2022/01/26 06:07:30;;;;;;;91.30;38.07;;;6.70;96.10;;;;;;5071245;28;20405;-64
2022/01/26 06:09:55;;;;;;;88.47;41.70;;;6.70;96.00;;;;;;5071564;28;20508;-64
2022/01/26 06:12:21;;;;;;;84.77;40.47;;;6.40;95.90;;;;;;5062063;28;20186;-64
2022/01/26 06:14:47;;;;;;;90.73;40.57;;;6.30;95.60;;;;;;5051824;28;20176;-64
2022/01/26 06:17:12;;;;;;;86.37;38.73;;;6.70;95.70;;;;;;5050743;28;20341;-67
2022/01/26 06:19:38;;;;;;;79.07;35.53;;;7.00;95.70;;;;;;5060703;28;20183;-64
2022/01/26 06:22:04;;;;;;;83.50;36.80;;;6.70;95.50;;;;;;5052165;28;20227;-64
2022/01/26 06:24:29;;;;;;;78.20;37.73;;;6.40;95.60;;;;;;5055176;28;20352;-65
2022/01/26 06:26:55;;;;;;;74.67;35.30;;;6.70;95.80;;;;;;5053781;28;20633;-64
2022/01/26 06:29:21;;;;;;;78.63;37.60;;;6.40;95.70;;;;;;5070636;28;20205;-65
2022/01/26 06:31:47;;;;;;;78.40;36.57;;;6.70;95.50;;;;;;5054698;28;20452;-64
2022/01/26 06:34:13;;;;;;;86.65;44.22;;;6.60;95.60;;;;;;5049597;28;20422;-71
2022/01/26 06:36:43;;;;;;;76.43;39.17;;;6.70;95.90;;;;;;5050108;28;20305;-65
2022/01/26 06:39:13;;;;;;;78.33;38.60;;;6.80;95.80;;;;;;5050774;28;20421;-65
2022/01/26 06:41:47;;;;;;;85.03;38.20;;;6.80;95.70;;;;;;5050479;28;20750;-65
2022/01/26 06:44:28;;;;;;;83.17;37.63;;;6.90;95.60;;;;;;5051968;28;20424;-72
2022/01/26 06:47:20;;;;;;;83.17;35.70;;;6.80;95.50;;;;;;5055190;28;20498;-64
2022/01/26 06:49:46;;;;;;;85.03;36.33;;;6.90;95.60;;;;;;5053903;28;20462;-65
2022/01/26 06:52:12;;;;;;;84.03;37.10;;;6.80;95.60;;;;;;5054833;28;20424;-67
2022/01/26 06:54:37;;;;;;;82.80;36.57;;;6.70;95.60;;;;;;5058995;28;20193;-66
2022/01/26 06:57:03;;;;;;;80.03;36.20;;;6.70;95.60;;;;;;5068021;28;20421;-65
2022/01/26 06:59:29;;;;;;;85.83;40.03;;;7.00;95.90;;;;;;5072803;28;20185;-65
2022/01/26 07:01:55;;;;;;;77.63;36.53;;;6.70;95.90;;;;;;5064247;28;20429;-65
2022/01/26 07:04:21;;;;;;;84.23;37.20;;;6.70;95.80;;;;;;5068015;28;20186;-65
2022/01/26 07:06:46;;;;;;;75.30;35.63;;;7.00;96.00;;;;;;5075626;28;20182;-65
2022/01/26 07:09:12;;;;;;;83.80;36.90;;;6.50;95.70;;;;;;5073013;28;20213;-65
2022/01/26 07:11:38;;;;;;;77.97;37.77;;;6.70;95.70;;;;;;5056719;28;20182;-64
2022/01/26 07:14:08;;;;;;;87.07;38.77;;;6.80;95.80;;;;;;5059543;28;20175;-67
2022/01/26 07:19:50;;;;;;;74.70;34.13;;;7.50;99.90;;;;;;5057320;28;20427;-68
2022/01/26 07:22:12;;;;;;;80.40;35.07;;;8.30;99.90;;;;;;5038543;28;20871;-70
2022/01/26 07:24:38;;;;;;;67.00;32.97;;;9.20;99.90;;;;;;5034724;28;20413;-67
2022/01/26 07:27:04;;;;;;;73.17;35.43;;;9.90;99.90;;;;;;5040734;28;20831;-68
2022/01/26 07:29:31;;;;;;;72.43;35.17;;;10.40;98.70;;;;;;5039036;28;20625;-67
2022/01/26 07:31:58;;;;;;;80.50;40.17;;;10.60;92.10;;;;;;5039464;28;20485;-67
2022/01/26 07:34:24;;;;;;;68.00;35.77;;;10.90;96.40;;;;;;5048417;28;20425;-67
2022/01/26 07:36:52;;;;;;;73.33;37.10;;;11.30;96.30;;;;;;5054062;28;20516;-67
2022/01/26 07:39:29;;;;;;;73.70;38.30;;;11.70;94.50;;;;;;5034195;28;20453;-68
2022/01/26 07:41:56;;;;;;;69.23;36.10;;;11.90;90.60;;;;;;5045100;28;20425;-67
2022/01/26 07:44:22;;;;;;;80.67;38.93;;;12.00;91.70;;;;;;5053445;28;20407;-66
2022/01/26 07:46:47;;;;;;;82.93;41.37;;;12.20;90.70;;;;;;5054288;28;20412;-65
2022/01/26 07:49:14;;;;;;;78.07;37.43;;;12.00;80.50;;;;;;5053884;28;20669;-68
2022/01/26 07:51:40;;;;;;;80.00;39.77;;;11.30;78.10;;;;;;5036630;28;20206;-65
2022/01/26 07:54:05;;;;;;;76.30;37.70;;;10.60;79.50;;;;;;5054488;28;20884;-65
2022/01/26 07:56:32;;;;;;;81.50;39.03;;;10.00;81.00;;;;;;5053061;28;20175;-66
2022/01/26 07:58:58;;;;;;;80.07;38.90;;;9.60;84.60;;;;;;5054083;28;20178;-65
2022/01/26 08:01:24;;;;;;;77.57;37.00;;;9.20;86.40;;;;;;5053400;28;20969;-65
2022/01/26 08:03:49;;;;;;;78.30;38.33;;;8.80;87.80;;;;;;5054310;28;20400;-65
2022/01/26 08:06:18;;;;;;;71.03;36.07;;;8.50;90.30;;;;;;5034654;28;20178;-68
2022/01/26 08:08:44;;;;;;;74.27;38.07;;;8.30;90.90;;;;;;5033786;28;20217;-65
2022/01/26 08:11:10;;;;;;;77.23;34.97;;;7.80;91.80;;;;;;5033941;28;20834;-66
2022/01/26 08:13:36;;;;;;;80.07;36.60;;;7.70;92.40;;;;;;5033537;28;20451;-66
2022/01/26 08:16:02;;;;;;;78.13;35.97;;;7.50;93.00;;;;;;5034218;28;20412;-66
2022/01/26 08:18:28;;;;;;;77.17;34.87;;;7.30;93.60;;;;;;5035894;28;20448;-66
2022/01/26 08:20:54;;;;;;;78.23;35.20;;;7.10;93.80;;;;;;5040174;28;20544;-66
2022/01/26 08:23:21;;;;;;;80.90;36.93;;;7.00;94.10;;;;;;5052782;28;20411;-72
2022/01/26 08:25:50;;;;;;;86.30;37.07;;;6.90;94.60;;;;;;5035511;28;20185;-65
2022/01/26 08:28:25;;;;;;;81.60;35.60;;;6.80;94.80;;;;;;5043628;28;20456;-72
2022/01/26 08:30:54;;;;;;;91.77;36.40;;;6.90;95.20;;;;;;5036640;28;20425;-65
2022/01/26 08:33:20;;;;;;;86.30;36.83;;;6.70;95.30;;;;;;5040479;28;20432;-66
2022/01/26 08:35:46;;;;;;;94.30;39.50;;;6.70;95.20;;;;;;5036644;28;20427;-65
2022/01/26 08:38:13;;;;;;;90.45;41.17;;;6.60;95.20;;;;;;5038855;28;20906;-67
2022/01/26 08:40:38;;;;;;;99.83;42.33;;;6.60;95.50;;;;;;5034844;28;20511;-65
2022/01/26 08:43:04;;;;;;;81.17;38.40;;;6.60;95.70;;;;;;5032331;28;20548;-65
2022/01/26 08:45:32;;;;;;;96.00;40.10;;;6.50;95.70;;;;;;5036563;28;21047;-65
2022/01/26 08:47:58;;;;;;;90.47;37.90;;;6.30;96.10;;;;;;5033856;28;20537;-66
2022/01/26 08:50:23;;;;;;;86.60;40.90;;;6.20;96.00;;;;;;5013939;28;20261;-66
2022/01/26 08:52:50;;;;;;;86.43;40.00;;;6.60;96.20;;;;;;5036611;28;20480;-65
2022/01/26 08:55:15;;;;;;;91.85;39.67;;;6.50;96.30;;;;;;5048869;28;20173;-65
2022/01/26 08:57:41;;;;;;;89.03;36.97;;;6.50;96.40;;;;;;5051217;28;20170;-65
2022/01/26 09:00:09;;;;;;;80.03;36.57;;;6.40;96.90;;;;;;5052553;28;20217;-66
2022/01/26 09:02:35;;;;;;;78.20;35.63;;;6.50;96.70;;;;;;5051959;28;20185;-66
2022/01/26 09:05:04;;;;;;;83.93;36.67;;;6.50;96.70;;;;;;5012709;28;20171;-66
2022/01/26 09:07:37;;;;;;;80.50;34.45;;;6.50;96.60;;;;;;5014315;28;20531;-66
2022/01/26 09:10:09;;;;;;;74.70;33.30;;;6.50;96.90;;;;;;5015718;28;20205;-65
2022/01/26 09:12:37;;;;;;;87.10;36.53;;;6.60;96.70;;;;;;5013097;28;20415;-65
2022/01/26 09:15:06;;;;;;;72.35;32.67;;;6.60;96.60;;;;;;5032621;28;20425;-65
2022/01/26 09:17:34;;;;;;;79.77;35.27;;;6.60;96.80;;;;;;5031998;28;20576;-65
2022/01/26 09:20:01;;;;;;;80.27;33.37;;;6.60;96.70;;;;;;5033027;28;20393;-65
2022/01/26 09:22:27;;;;;;;73.13;34.10;;;6.60;96.60;;;;;;5046803;28;20519;-66
2022/01/26 09:24:53;;;;;;;70.10;30.90;;;6.40;96.50;;;;;;5051455;28;20984;-65
2022/01/26 09:27:18;;;;;;;69.57;33.20;;;6.70;96.70;;;;;;5052156;28;20228;-66
2022/01/26 09:29:46;;;;;;;79.17;35.27;;;6.70;96.60;;;;;;5052782;28;20453;-65
2022/01/26 09:32:13;;;;;;;74.20;33.60;;;6.70;96.80;;;;;;5052681;28;20201;-65
2022/01/26 09:34:40;;;;;;;74.15;32.78;;;6.70;97.00;;;;;;5052128;28;20449;-66
2022/01/26 09:37:07;;;;;;;77.43;34.80;;;6.70;97.20;;;;;;5052872;28;20174;-66
2022/01/26 09:39:33;;;;;;;81.73;31.97;;;6.70;97.10;;;;;;5050786;28;20468;-65
2022/01/26 09:41:59;;;;;;;73.13;33.10;;;6.70;97.20;;;;;;5052349;28;20408;-65
2022/01/26 09:44:26;;;;;;;74.30;34.20;;;6.70;97.00;;;;;;5052041;28;20479;-66
2022/01/26 09:46:52;;;;;;;71.13;33.10;;;6.70;97.20;;;;;;5052595;28;20861;-67
2022/01/26 09:49:19;;;;;;;73.23;34.10;;;6.70;97.20;;;;;;5052559;28;20492;-67
2022/01/26 09:51:49;;;;;;;69.53;32.20;;;6.70;97.40;;;;;;5051362;28;20405;-68
2022/01/26 09:54:17;;;;;;;71.47;31.67;;;6.70;97.60;;;;;;5052543;28;20181;-67
2022/01/26 09:56:49;;;;;;;77.87;33.93;;;6.90;97.50;;;;;;5051931;28;20410;-67
2022/01/26 09:59:17;;;;;;;80.30;31.73;;;6.80;97.60;;;;;;5052590;28;20727;-67
2022/01/26 10:01:48;;;;;;;76.00;31.20;;;6.70;97.60;;;;;;5051809;28;20206;-67
2022/01/26 10:04:37;;;;;;;87.93;34.10;;;6.70;98.30;;;;;;5052527;28;20785;-67
2022/01/26 10:07:11;;;;;;;76.60;33.43;;;6.70;98.00;;;;;;5051247;28;20760;-66
2022/01/26 10:17:41;;;;;;;81.27;32.03;;;6.80;98.40;;;;;;5051793;28;20394;-67
2022/01/26 10:20:17;;;;;;;72.93;30.37;;;6.80;98.50;;;;;;5055363;28;20413;-66
2022/01/26 10:22:43;;;;;;;72.73;32.23;;;6.90;98.40;;;;;;5055672;28;20409;-66
2022/01/26 10:25:19;;;;;;;78.60;31.57;;;6.90;98.50;;;;;;5056220;28;20463;-67
2022/01/26 10:27:49;;;;;;;72.53;30.63;;;6.90;98.40;;;;;;5055841;28;20388;-66
2022/01/26 10:30:17;;;;;;;78.27;32.63;;;6.90;98.10;;;;;;5056063;28;20471;-66
2022/01/26 10:32:47;;;;;;;71.43;31.43;;;6.90;98.20;;;;;;5054490;28;20417;-66
2022/01/26 10:35:15;;;;;;;71.40;32.03;;;7.00;98.50;;;;;;5056113;28;20736;-66
2022/01/26 10:37:49;;;;;;;77.23;31.23;;;6.80;98.40;;;;;;5054006;28;21001;-67
2022/01/26 10:40:23;;;;;;;77.00;30.87;;;6.80;98.50;;;;;;5056098;28;20410;-66
2022/01/26 10:43:14;;;;;;;75.35;31.70;;;6.90;98.90;;;;;;5063458;28;20417;-66
2022/01/26 10:46:01;;;;;;;77.40;32.67;;;6.90;98.50;;;;;;5057082;28;20181;-66
2022/01/26 10:48:59;;;;;;;72.77;31.77;;;6.90;98.80;;;;;;5054490;28;20453;-71
2022/01/26 10:54:10;;;;;;;77.53;33.40;;;6.90;99.20;;;;;;5056553;28;20167;-66
2022/01/26 10:56:36;;;;;;;72.13;31.13;;;6.50;98.90;;;;;;5056358;28;20413;-66
2022/01/26 10:59:03;;;;;;;73.20;32.40;;;6.80;99.00;;;;;;5054076;28;21153;-66
2022/01/26 11:01:28;;;;;;;71.27;31.60;;;6.80;99.50;;;;;;5055194;28;20866;-66
2022/01/26 11:03:55;;;;;;;73.47;29.77;;;6.80;99.50;;;;;;5055668;28;20429;-67
2022/01/26 11:06:21;;;;;;;75.73;30.97;;;6.90;99.40;;;;;;5060698;28;20175;-66
2022/01/26 11:08:48;;;;;;;63.67;30.03;;;6.90;99.20;;;;;;5063032;28;20470;-66
2022/01/26 11:11:22;;;;;;;77.87;33.67;;;6.90;99.30;;;;;;5056302;28;20190;-66
2022/01/26 11:13:48;;;;;;;82.23;32.80;;;6.90;99.50;;;;;;5063653;28;20431;-66
2022/01/26 11:16:16;;;;;;;76.67;32.63;;;6.90;99.60;;;;;;5063455;28;20429;-66
2022/01/26 11:18:45;;;;;;;79.17;33.03;;;6.40;99.60;;;;;;5063768;28;20424;-66
2022/01/26 11:21:15;;;;;;;76.33;34.50;;;6.80;99.90;;;;;;5059227;28;20461;-66
2022/01/26 11:23:41;;;;;;;73.40;32.87;;;6.80;99.90;;;;;;5043494;28;20422;-66
2022/01/26 11:26:21;;;;;;;76.77;32.73;;;6.50;99.90;;;;;;5042745;28;20829;-67
2022/01/26 11:28:47;;;;;;;86.40;34.80;;;6.90;99.90;;;;;;5028012;28;20290;-66
2022/01/26 11:31:16;;;;;;;71.60;31.27;;;6.70;99.90;;;;;;5033455;28;20510;-66
2022/01/26 11:33:44;;;;;;;74.60;32.23;;;6.90;99.90;;;;;;5033784;28;20176;-66
2022/01/26 11:36:14;;;;;;;70.27;32.50;;;6.80;99.90;;;;;;5016794;28;20445;-65
2022/01/26 11:47:20;;;;;;;75.87;30.30;;;6.80;99.90;;;;;;5037581;28;20402;-67
2022/01/26 11:49:47;;;;;;;74.50;31.93;;;6.30;99.90;;;;;;5037666;28;20740;-67
2022/01/26 11:52:40;;;;;;;62.60;30.37;;;6.70;99.90;;;;;;5031566;28;20943;-66
2022/01/26 11:55:26;;;;;;;70.33;29.70;;;6.60;99.90;;;;;;5013694;28;20463;-67
2022/01/26 11:57:52;;;;;;;73.40;30.30;;;6.60;99.90;;;;;;5035947;28;20410;-66
2022/01/26 12:01:10;;;;;;;67.23;31.67;;;6.60;99.90;;;;;;5036886;28;20411;-66
2022/01/26 12:03:43;;;;;;;77.60;31.77;;;6.60;99.90;;;;;;4994740;28;20432;-66
2022/01/26 12:06:18;;;;;;;60.85;31.27;;;6.60;99.90;;;;;;5050184;28;20406;-66
2022/01/26 12:08:45;;;;;;;70.37;30.40;;;6.60;99.90;;;;;;5017121;28;20206;-66
2022/01/26 12:11:12;;;;;;;73.60;30.07;;;6.60;99.90;;;;;;5053681;28;20426;-66
2022/01/26 12:13:39;;;;;;;62.67;31.92;;;6.40;99.90;;;;;;5034797;28;20527;-67
2022/01/26 12:16:13;;;;;;;74.53;33.30;;;6.60;99.90;;;;;;5046070;28;20654;-66
2022/01/26 12:18:45;;;;;;;64.40;31.53;;;6.60;99.90;;;;;;5015287;28;20911;-66
2022/01/26 12:35:59;;;;;;;67.57;30.37;;;6.60;99.90;;;;;;5037012;28;20523;-66
2022/01/26 12:38:41;;;;;;;66.05;28.23;;;6.30;99.90;;;;;;5033472;28;20428;-66
2022/01/26 12:43:54;;;;;;;57.97;28.42;;;6.60;99.90;;;;;;5033199;28;20418;-67
2022/01/26 12:46:24;;;;;;;60.37;27.53;;;6.70;99.90;;;;;;5043085;28;20176;-67
2022/01/26 12:49:13;;;;;;;52.40;24.50;;;6.90;99.90;;;;;;5040845;28;20464;-66
2022/01/26 12:51:45;;;;;;;54.90;26.00;;;6.80;99.90;;;;;;5032541;28;20180;-66
2022/01/26 12:54:11;;;;;;;49.33;23.10;;;6.70;99.90;;;;;;5051249;28;20437;-67
2022/01/26 12:56:37;;;;;;;56.83;25.30;;;6.70;99.90;;;;;;5032615;28;20890;-66
2022/01/26 12:59:12;;;;;;;50.93;24.77;;;6.70;99.90;;;;;;5019303;28;20410;-66
2022/01/26 13:01:39;;;;;;;46.90;24.07;;;6.70;99.90;;;;;;5039232;28;20426;-66
2022/01/26 13:04:08;;;;;;;58.10;25.50;;;6.30;99.90;;;;;;5046478;28;20428;-66
2022/01/26 13:06:37;;;;;;;47.60;23.70;;;6.70;99.90;;;;;;5045619;28;20509;-71
2022/01/26 13:09:26;;;;;;;47.35;23.35;;;6.80;99.90;;;;;;5032935;28;20469;-66
2022/01/26 13:11:55;;;;;;;46.83;24.40;;;6.70;99.90;;;;;;5017033;28;20581;-66
2022/01/26 13:14:32;;;;;;;51.20;25.20;;;6.80;99.90;;;;;;5042873;28;20428;-66
2022/01/26 13:17:17;;;;;;;49.70;23.70;;;6.80;99.90;;;;;;5042055;28;20438;-66
2022/01/26 13:31:01;;;;;;;46.23;22.30;;;6.70;99.90;;;;;;5063098;28;20248;-73
2022/01/26 13:41:35;;;;;;;49.20;23.30;;;6.70;99.90;;;;;;5063218;28;20425;-66
2022/01/26 13:44:33;;;;;;;49.27;23.70;;;6.70;99.90;;;;;;5061743;28;20190;-66
2022/01/26 13:47:25;;;;;;;53.37;25.70;;;6.80;99.90;;;;;;5062369;28;20438;-65
2022/01/26 14:00:24;;;;;;;43.73;24.10;;;6.80;99.90;;;;;;5070826;28;20486;-65
2022/01/26 14:02:55;;;;;;;49.27;22.80;;;6.70;99.90;;;;;;5071012;28;20388;-66
2022/01/26 14:05:21;;;;;;;41.93;21.43;;;6.80;99.90;;;;;;5067275;28;20416;-65
2022/01/26 14:07:47;;;;;;;47.13;22.60;;;6.40;99.90;;;;;;5045473;28;20434;-65
2022/01/26 14:10:13;;;;;;;46.33;22.37;;;6.70;99.90;;;;;;5069879;28;20546;-66
2022/01/26 14:12:45;;;;;;;47.27;21.70;;;6.40;99.90;;;;;;5065182;28;20179;-66
2022/01/26 14:15:11;;;;;;;45.35;23.55;;;6.50;99.90;;;;;;5065228;28;20184;-65
2022/01/26 14:17:57;;;;;;;48.47;23.00;;;6.30;99.90;;;;;;5051697;28;20186;-67
2022/01/26 14:23:18;;;;;;;40.57;19.67;;;6.70;99.90;;;;;;5031863;28;20326;-67
2022/01/26 14:25:48;;;;;;;43.03;22.60;;;6.70;99.90;;;;;;5044706;28;20498;-65
2022/01/26 14:28:17;;;;;;;41.85;22.88;;;6.60;99.90;;;;;;5051701;28;20892;-67
2022/01/26 14:33:30;;;;;;;43.38;21.73;;;6.80;99.90;;;;;;5049059;28;20403;-66
2022/01/26 14:54:47;;;;;;;42.70;20.30;;;6.70;99.90;;;;;;5051852;28;20424;-66
2022/01/26 15:12:03;;;;;;;35.80;18.83;;;6.40;99.90;;;;;;5054592;28;20471;-66
2022/01/26 15:30:09;;;;;;;41.63;21.93;;;6.30;99.90;;;;;;5054508;28;20449;-66
2022/01/26 16:04:21;;;;;;;33.93;18.13;;;6.80;99.90;;;;;;5054389;28;20398;-68
2022/01/26 16:05:29;;;;;;;35.07;18.63;;;6.80;99.90;;;;;;5053995;28;20401;-66
2022/01/26 16:08:08;;;;;;;37.40;19.60;;;6.90;99.90;;;;;;5053722;28;20444;-67
2022/01/26 16:21:21;;;;;;;40.47;18.77;;;6.90;99.90;;;;;;5053928;28;20510;-68
2022/01/26 18:51:36;;;;;;;43.30;22.47;;;7.40;99.90;;;;;;5035625;28;20414;-65
2022/01/26 18:54:04;;;;;;;45.90;24.13;;;7.30;99.90;;;;;;4999956;28;20438;-66
2022/01/26 18:56:30;;;;;;;48.23;23.00;;;7.40;99.90;;;;;;5037590;28;20435;-65
2022/01/26 18:58:56;;;;;;;42.60;23.40;;;7.40;99.90;;;;;;5054023;28;20427;-65
2022/01/26 19:01:21;;;;;;;38.97;21.87;;;7.40;99.90;;;;;;5054799;28;20183;-65
2022/01/26 19:03:47;;;;;;;41.00;23.10;;;7.40;99.90;;;;;;5054452;28;20485;-65
2022/01/26 19:06:13;;;;;;;43.97;23.30;;;7.40;99.90;;;;;;5008040;28;20196;-66
2022/01/26 19:08:41;;;;;;;40.67;22.60;;;7.50;99.90;;;;;;5044972;28;20215;-65
2022/01/26 19:11:11;;;;;;;45.73;24.57;;;7.50;99.90;;;;;;5054093;28;20410;-65
2022/01/26 19:13:37;;;;;;;49.70;24.77;;;7.30;99.90;;;;;;5025911;28;20403;-65
2022/01/26 19:16:11;;;;;;;40.37;22.70;;;7.60;99.90;;;;;;5027050;28;20771;-65
2022/01/26 19:19:06;;;;;;;43.43;24.20;;;7.50;99.90;;;;;;5025265;28;20963;-65
2022/01/26 19:22:40;;;;;;;37.70;22.03;;;7.10;99.90;;;;;;5032890;28;20503;-65
2022/01/26 19:24:48;;;;;;;615.20;366.47;;;7.50;99.90;;;;;;5030906;28;20993;-65
2022/01/26 19:27:25;;;;;;;86.53;45.80;;;7.70;99.90;;;;;;5053809;28;20469;-65
2022/01/26 19:50:50;;;;;;;45.33;24.27;;;7.70;99.90;;;;;;5033748;28;20967;-68
2022/01/26 19:53:17;;;;;;;41.80;23.67;;;7.70;99.90;;;;;;5037455;28;20445;-68